If you wish to contribute or participate in the discussions about articles you are invited to join SKYbrary as a registered user

 Actions

Nancy-Ochey (BA 133) Air Base

From SKYbrary Wiki

LFSO
Airport
ICAO: LFSO
Summary
Name Nancy-Ochey (BA 133) Air Base
Region Europe
Territory France FR.gif
Location , Lorraine
Serving Nancy
Elevation 337.109 m
1,106 ft
1,106 ft337.109 m
Type medium airport
Coordinates 48° 34' 59.00" N, 5° 57' 18.00" E
Runways
Designator Length Width Surface ROPS
2/20 2401 m7,877.297 ft
45 m147.638 ft
CON /


METAR
Observation LFSO 220530Z AUTO 01002KT CAVOK 10/08 Q1025 NOSIG
Station Nancy / Ochey
Date/Time 22 August 2019 05:30:00
Wind direction 10°
Wind speed 02 kts
Lowest cloud amount clouds and visibility OK
Temperature 10°C
Dew point 8°C
Humidity 87%
QNH 1025 hPa
Weather condition n/a